Findlay, OH (45840)

4:32 AM EST on February 06, 2016 (GMT -0500)
Downtown | | Change Station
CLOSE
Current Station
Personal Weather Station
Location: Findlay, OH
Elevation: 781 ft
Nearby Weather Stations

Elev 781 ft 41.04 °N, 83.65 °W | Updated 19 seconds ago

Clear
Clear
27.3 °F
Feels Like 27 °F
N
1.1
Wind Variable Wind from NE
Gusts 4.0 mph

Today
High -- | Low -- °F
--% Chance of Precip.
Yesterday
High -- | Low -- °F
Precip. -- in
Pressure 30.30 in
Visibility 7.0 miles
Clouds Clear
Windchill 27 °F
Dew Point 24 °F
Humidity 87%
Rainfall 0.00 in
Snow Depth Not available.
7:40 AM 5:57 PM
Waning Crescent, 6% visible
METAR KFDY 060853Z AUTO 24005KT 7SM CLR M03/M06 A3029 RMK AO2 SLP261 T10331056 56001 TSNO
Pressure 30.30 in
Visibility 7.0 miles
Clouds Clear
Windchill 27 °F
Dew Point 24 °F
Humidity 87%
Rainfall 0.00 in
Snow Depth Not available.
7:40 AM 5:57 PM
Waning Crescent, 6% visible
METAR KFDY 060853Z AUTO 24005KT 7SM CLR M03/M06 A3029 RMK AO2 SLP261 T10331056 56001 TSNO

10-Day Weather Forecast

Almanac

Astronomy

Feb. 06, 2016 Rise Set
Actual Time
Civil Twilight
Nautical Twilight
Astronomical Twilight
Moon
Length of Visible Light
Length of Day
Tomorrow will be .
, % of the Moon is Illuminated

Today's Extremes

State Highs State Lows

Community

WunderPhotos

Upload Photos

1,890,933 photos uploaded!

WunderBlog® & News

Nearby

Air Quality

  Air Quality AQ Index Pollutant
Not available.

Snow Depth

Station Depth Elevation

Earthquake Activity

City Distance Mag. Time & Date
Minimum magnitude displayed is 2.5.

Coastal Water Temperatures

Place Temperature

Stations

Nearby Weather Stations

Station Location Temp. Windchill Dew Point Humidity Wind Precip. Elev Updated Type
                   

Watches & Warnings

There are currently no watches in effect.